Time;durP1;ratioP1;P1;durP2;ratioP2;P2;SDS_P1;SDS_P2;PMS_P1;PMS_P2;Temp;Humidity;BMP_temperature;BMP_pressure;BME280_temperature;BME280_humidity;BME280_pressure;Samples;Min_cycle;Max_cycle;Signal;HPM_P1;HPM_P2
2021/06/02 00:01:18;;;;;;;3.70;3.40;;;12.70;99.90;;;;;;497154;239;28878;-72
2021/06/02 00:03:20;;;;;;;3.43;3.23;;;;;;;;;;497250;238;28596;-72
2021/06/02 00:05:22;;;;;;;4.87;3.80;;;12.70;99.90;;;;;;497205;239;27279;-72
2021/06/02 00:07:23;;;;;;;3.50;3.20;;;12.70;99.90;;;;;;497315;238;28375;-72
2021/06/02 00:09:25;;;;;;;4.53;3.27;;;;;;;;;;497259;237;28297;-72
2021/06/02 00:11:27;;;;;;;3.57;3.13;;;12.70;99.90;;;;;;497268;239;26690;-72
2021/06/02 00:13:28;;;;;;;5.10;3.80;;;12.70;99.90;;;;;;497308;238;28607;-72
2021/06/02 00:15:29;;;;;;;3.17;2.87;;;12.70;99.90;;;;;;497270;238;28825;-72
2021/06/02 00:17:32;;;;;;;3.30;3.00;;;;;;;;;;497273;238;28527;-72
2021/06/02 00:19:33;;;;;;;3.60;3.30;;;12.70;99.90;;;;;;497335;239;26581;-72
2021/06/02 00:21:34;;;;;;;3.80;3.40;;;12.70;99.90;;;;;;497342;238;28551;-72
2021/06/02 00:23:35;;;;;;;4.20;2.90;;;12.60;99.90;;;;;;497291;238;28316;-72
2021/06/02 00:25:37;;;;;;;3.83;3.27;;;12.70;99.90;;;;;;497058;238;29196;-73
2021/06/02 00:27:39;;;;;;;5.90;3.60;;;;;;;;;;497280;238;28740;-73
2021/06/02 00:29:40;;;;;;;3.60;3.07;;;12.50;99.90;;;;;;497245;239;27255;-72
2021/06/02 00:31:41;;;;;;;3.27;2.97;;;12.40;99.90;;;;;;497324;238;28161;-72
2021/06/02 00:33:43;;;;;;;3.80;2.80;;;12.30;99.90;;;;;;497324;238;28472;-71
2021/06/02 00:35:44;;;;;;;4.37;3.00;;;12.20;99.90;;;;;;497317;238;28520;-73
2021/06/02 00:37:45;;;;;;;3.50;3.20;;;12.20;99.90;;;;;;497310;238;28450;-72
2021/06/02 00:39:47;;;;;;;3.20;2.63;;;12.10;99.90;;;;;;497279;239;28614;-73
2021/06/02 00:41:48;;;;;;;3.73;3.33;;;12.10;99.90;;;;;;497324;239;28889;-72
2021/06/02 00:43:49;;;;;;;3.57;3.27;;;12.00;99.90;;;;;;497285;237;28065;-72
2021/06/02 00:45:50;;;;;;;3.63;3.33;;;12.00;99.90;;;;;;497245;237;28337;-72
2021/06/02 00:47:51;;;;;;;3.50;3.20;;;12.00;99.90;;;;;;497307;238;28282;-72
2021/06/02 00:49:53;;;;;;;3.33;3.13;;;12.10;99.90;;;;;;497302;239;28536;-72
2021/06/02 00:51:54;;;;;;;3.97;2.87;;;12.10;99.90;;;;;;497308;238;28308;-73
2021/06/02 00:53:55;;;;;;;3.03;2.83;;;12.20;99.90;;;;;;497275;238;28129;-71
2021/06/02 00:55:56;;;;;;;2.90;2.70;;;12.30;99.90;;;;;;497246;238;28833;-72
2021/06/02 00:57:58;;;;;;;2.80;2.60;;;12.50;99.90;;;;;;497246;238;28249;-72
2021/06/02 00:59:59;;;;;;;4.27;3.10;;;12.40;99.90;;;;;;497129;238;28354;-72
2021/06/02 01:02:00;;;;;;;3.30;3.00;;;12.40;99.90;;;;;;497281;238;29384;-73
2021/06/02 01:04:01;;;;;;;3.30;2.83;;;12.50;99.90;;;;;;497285;238;28815;-72
2021/06/02 01:06:03;;;;;;;3.70;3.40;;;12.40;99.90;;;;;;497315;238;28985;-72
2021/06/02 01:08:04;;;;;;;2.73;2.53;;;12.30;99.90;;;;;;497315;238;28560;-72
2021/06/02 01:10:05;;;;;;;4.63;3.20;;;12.20;99.90;;;;;;497240;238;28276;-72
2021/06/02 01:12:07;;;;;;;3.10;2.80;;;12.10;99.90;;;;;;497244;237;28300;-72
2021/06/02 01:14:08;;;;;;;3.57;3.27;;;12.00;99.90;;;;;;497239;238;28817;-71
2021/06/02 01:16:09;;;;;;;3.57;3.17;;;12.00;99.90;;;;;;497242;238;28819;-72
2021/06/02 01:18:10;;;;;;;3.43;3.13;;;12.00;99.90;;;;;;497249;238;28381;-71
2021/06/02 01:20:13;;;;;;;11.30;3.30;;;;;;;;;;497291;238;28539;-73
2021/06/02 01:22:14;;;;;;;3.23;2.90;;;11.90;99.90;;;;;;497255;239;26597;-72
2021/06/02 01:24:15;;;;;;;3.03;2.83;;;11.90;99.90;;;;;;497323;238;28558;-73
2021/06/02 01:26:16;;;;;;;3.20;2.93;;;11.90;99.90;;;;;;497286;238;28388;-71
2021/06/02 01:28:18;;;;;;;3.03;2.83;;;11.80;99.90;;;;;;497201;238;28416;-72
2021/06/02 01:30:19;;;;;;;2.97;2.77;;;11.80;99.90;;;;;;497254;238;28475;-72
2021/06/02 01:32:20;;;;;;;3.13;2.83;;;11.80;99.90;;;;;;497227;239;28774;-72
2021/06/02 01:34:21;;;;;;;3.10;2.90;;;11.80;99.90;;;;;;497260;238;28631;-71
2021/06/02 01:36:23;;;;;;;3.03;2.83;;;11.80;99.90;;;;;;497266;238;28500;-72
2021/06/02 01:38:24;;;;;;;3.57;3.27;;;11.90;99.90;;;;;;497235;238;28996;-72
2021/06/02 01:40:25;;;;;;;3.23;3.03;;;11.90;99.90;;;;;;497225;238;28376;-72
2021/06/02 01:42:26;;;;;;;10.80;3.27;;;11.90;99.90;;;;;;497238;238;28229;-72
2021/06/02 01:44:28;;;;;;;3.10;2.90;;;11.80;99.90;;;;;;497250;239;28155;-72
2021/06/02 01:46:29;;;;;;;3.00;2.70;;;11.80;99.90;;;;;;497250;238;28274;-71
2021/06/02 01:48:30;;;;;;;5.37;3.07;;;11.70;99.90;;;;;;497219;238;28396;-72
2021/06/02 01:50:31;;;;;;;3.50;3.07;;;11.70;99.90;;;;;;497249;238;28160;-72
2021/06/02 01:52:33;;;;;;;2.67;2.47;;;11.60;99.90;;;;;;497222;238;28783;-72
2021/06/02 01:54:34;;;;;;;3.20;2.90;;;11.50;99.90;;;;;;497222;238;28402;-73
2021/06/02 01:56:35;;;;;;;3.10;2.90;;;11.50;99.90;;;;;;497148;238;28843;-71
2021/06/02 01:58:36;;;;;;;3.90;3.10;;;11.60;99.90;;;;;;497244;238;28763;-72
2021/06/02 02:00:38;;;;;;;3.63;3.03;;;11.60;99.90;;;;;;497240;238;28632;-71
2021/06/02 02:02:39;;;;;;;4.87;3.23;;;11.50;99.90;;;;;;497225;238;29060;-72
2021/06/02 02:04:40;;;;;;;3.80;3.50;;;11.40;99.90;;;;;;497319;238;28299;-73
2021/06/02 02:06:41;;;;;;;3.67;3.30;;;11.40;99.90;;;;;;497250;238;28385;-72
2021/06/02 02:08:43;;;;;;;3.20;2.90;;;11.30;99.90;;;;;;497262;238;28350;-72
2021/06/02 02:10:44;;;;;;;3.10;2.90;;;11.20;99.90;;;;;;497306;238;28442;-72
2021/06/02 02:12:45;;;;;;;2.83;2.63;;;11.30;99.90;;;;;;497334;238;28163;-71
2021/06/02 02:14:46;;;;;;;3.30;3.00;;;11.30;99.90;;;;;;497356;238;28388;-72
2021/06/02 02:16:48;;;;;;;4.37;3.50;;;11.30;99.90;;;;;;497300;238;28366;-72
2021/06/02 02:18:49;;;;;;;3.50;3.20;;;11.30;99.90;;;;;;497256;238;28431;-72
2021/06/02 02:20:50;;;;;;;3.23;2.97;;;11.30;99.90;;;;;;497263;238;28784;-71
2021/06/02 02:22:52;;;;;;;3.10;2.90;;;11.20;99.90;;;;;;497256;238;28928;-72
2021/06/02 02:24:54;;;;;;;3.63;3.33;;;;;;;;;;497316;238;28775;-71
2021/06/02 02:26:55;;;;;;;3.83;3.53;;;11.20;99.90;;;;;;497332;239;27230;-72
2021/06/02 02:28:56;;;;;;;3.90;3.60;;;11.20;99.90;;;;;;497285;238;28339;-71
2021/06/02 02:30:58;;;;;;;3.70;3.40;;;11.20;99.90;;;;;;497249;238;28319;-71
2021/06/02 02:32:59;;;;;;;4.17;3.77;;;11.20;99.90;;;;;;497055;238;28061;-72
2021/06/02 02:35:00;;;;;;;3.30;3.10;;;11.10;99.90;;;;;;497283;238;28404;-71
2021/06/02 02:37:01;;;;;;;4.33;3.80;;;11.20;99.90;;;;;;497238;238;28503;-72
2021/06/02 02:39:03;;;;;;;4.30;3.90;;;11.10;99.90;;;;;;497238;239;28811;-72
2021/06/02 02:41:04;;;;;;;3.80;3.40;;;11.10;99.90;;;;;;497172;238;28319;-72
2021/06/02 02:43:05;;;;;;;4.73;3.40;;;11.10;99.90;;;;;;497222;238;28276;-71
2021/06/02 02:45:06;;;;;;;3.33;3.00;;;11.00;99.90;;;;;;497265;238;28329;-72
2021/06/02 02:47:08;;;;;;;3.70;3.30;;;11.00;99.90;;;;;;497272;238;28179;-72
2021/06/02 02:49:09;;;;;;;4.63;3.70;;;11.00;99.90;;;;;;497265;238;28294;-71
2021/06/02 02:51:10;;;;;;;3.10;2.90;;;11.00;99.90;;;;;;497323;238;28435;-71
2021/06/02 02:53:11;;;;;;;3.10;2.80;;;10.90;99.90;;;;;;497323;238;28170;-71
2021/06/02 02:55:13;;;;;;;3.40;3.10;;;11.00;99.90;;;;;;497303;239;28259;-71
2021/06/02 02:57:14;;;;;;;3.57;3.37;;;11.00;99.90;;;;;;497309;238;28377;-72
2021/06/02 02:59:15;;;;;;;3.87;3.03;;;11.00;99.90;;;;;;497293;238;28674;-72
2021/06/02 03:01:16;;;;;;;3.50;3.10;;;11.00;99.90;;;;;;497217;238;28906;-72
2021/06/02 03:03:18;;;;;;;2.90;2.70;;;11.10;99.90;;;;;;497265;238;28581;-71
2021/06/02 03:05:19;;;;;;;3.23;3.03;;;11.00;99.90;;;;;;497246;238;28294;-72
2021/06/02 03:07:20;;;;;;;3.20;2.90;;;10.90;99.90;;;;;;497269;238;28179;-73
2021/06/02 03:09:22;;;;;;;3.43;3.03;;;10.80;99.90;;;;;;497244;238;28125;-72
2021/06/02 03:11:23;;;;;;;4.10;3.80;;;10.70;99.90;;;;;;497256;238;28228;-72
2021/06/02 03:13:24;;;;;;;3.80;3.50;;;10.40;99.90;;;;;;497265;238;28263;-71
2021/06/02 03:15:25;;;;;;;5.00;3.50;;;10.40;99.90;;;;;;497199;238;28181;-72
2021/06/02 03:17:26;;;;;;;5.70;4.00;;;10.30;99.90;;;;;;497259;238;28302;-72
2021/06/02 03:19:31;;;;;;;6.80;4.23;;;10.40;99.90;;;;;;497263;238;28033;-71
2021/06/02 03:21:29;;;;;;;6.57;3.50;;;10.30;99.90;;;;;;497036;239;27878;-72
2021/06/02 03:23:30;;;;;;;3.30;3.10;;;10.30;99.90;;;;;;497253;238;28546;-71
2021/06/02 03:25:31;;;;;;;3.50;3.30;;;10.40;99.90;;;;;;497234;238;28608;-72
2021/06/02 03:27:33;;;;;;;4.00;3.70;;;10.40;99.90;;;;;;497285;238;28654;-73
2021/06/02 03:29:34;;;;;;;3.80;3.50;;;10.20;99.90;;;;;;497305;238;28305;-71
2021/06/02 03:31:35;;;;;;;3.90;3.60;;;10.10;99.90;;;;;;497302;238;28301;-72
2021/06/02 03:33:36;;;;;;;4.37;3.57;;;10.20;99.90;;;;;;497310;238;27916;-71
2021/06/02 03:35:38;;;;;;;3.73;3.40;;;10.20;99.90;;;;;;497312;238;28052;-71
2021/06/02 03:37:39;;;;;;;6.13;4.73;;;10.30;99.90;;;;;;497300;238;28416;-73
2021/06/02 03:39:40;;;;;;;5.73;4.10;;;10.30;99.90;;;;;;497287;238;28072;-72
2021/06/02 03:41:41;;;;;;;4.40;4.00;;;10.30;99.90;;;;;;497335;238;27903;-72
2021/06/02 03:43:43;;;;;;;3.90;3.60;;;10.40;99.90;;;;;;497344;238;27808;-71
2021/06/02 03:45:44;;;;;;;3.57;3.27;;;10.40;99.90;;;;;;497310;238;27947;-72
2021/06/02 03:47:45;;;;;;;3.73;3.30;;;10.40;99.90;;;;;;496851;238;28607;-71
2021/06/02 03:49:47;;;;;;;5.93;4.10;;;10.40;99.90;;;;;;497233;238;28557;-72
2021/06/02 03:51:50;;;;;;;5.20;3.73;;;10.40;99.90;;;;;;497262;238;28601;-72
2021/06/02 03:53:52;;;;;;;5.83;3.50;;;10.30;99.90;;;;;;497273;238;28168;-72
2021/06/02 03:55:53;;;;;;;4.77;3.77;;;10.30;99.90;;;;;;497279;238;27909;-72
2021/06/02 03:57:54;;;;;;;3.70;3.40;;;10.40;99.90;;;;;;497291;238;28049;-71
2021/06/02 03:59:55;;;;;;;4.37;3.97;;;10.40;99.90;;;;;;497305;238;28168;-71
2021/06/02 04:01:57;;;;;;;3.53;3.20;;;10.50;99.90;;;;;;497237;238;28001;-71
2021/06/02 04:03:58;;;;;;;6.63;3.57;;;10.50;99.90;;;;;;497265;238;28267;-72
2021/06/02 04:05:59;;;;;;;3.13;2.93;;;10.50;99.90;;;;;;497274;238;28296;-72
2021/06/02 04:08:00;;;;;;;3.63;3.33;;;10.50;99.90;;;;;;497366;238;28686;-72
2021/06/02 04:10:02;;;;;;;3.63;3.33;;;10.50;99.90;;;;;;497322;238;28806;-72
2021/06/02 04:12:04;;;;;;;3.80;3.50;;;;;;;;;;497298;238;28735;-72
2021/06/02 04:14:05;;;;;;;4.30;3.30;;;10.10;99.90;;;;;;497239;239;27203;-72
2021/06/02 04:16:07;;;;;;;4.00;3.70;;;10.00;99.90;;;;;;497249;238;28042;-72
2021/06/02 04:18:08;;;;;;;4.60;3.77;;;9.90;99.90;;;;;;497303;238;28164;-71
2021/06/02 04:20:09;;;;;;;6.83;4.13;;;10.10;99.90;;;;;;497300;237;28173;-71
2021/06/02 04:22:10;;;;;;;4.20;3.80;;;10.10;99.90;;;;;;497052;238;28647;-72
2021/06/02 04:24:12;;;;;;;4.30;4.00;;;10.20;99.90;;;;;;497245;238;28476;-72
2021/06/02 04:26:13;;;;;;;5.07;3.80;;;10.20;99.90;;;;;;497233;238;28404;-72
2021/06/02 04:28:14;;;;;;;4.70;4.07;;;10.10;99.90;;;;;;497240;238;28616;-71
2021/06/02 04:30:15;;;;;;;4.23;3.83;;;10.00;99.90;;;;;;497252;238;28070;-72
2021/06/02 04:32:17;;;;;;;4.07;3.67;;;10.00;99.90;;;;;;497230;239;27977;-72
2021/06/02 04:34:18;;;;;;;6.10;4.17;;;10.10;99.90;;;;;;497084;239;27792;-72
2021/06/02 04:36:19;;;;;;;4.60;3.60;;;10.20;99.90;;;;;;497200;238;28104;-71
2021/06/02 04:38:20;;;;;;;3.93;3.50;;;10.30;99.90;;;;;;497161;238;27964;-72
2021/06/02 04:40:22;;;;;;;4.50;4.10;;;10.20;99.90;;;;;;497165;238;28232;-72
2021/06/02 04:42:23;;;;;;;4.37;3.93;;;10.30;99.90;;;;;;497222;238;28052;-71
2021/06/02 04:44:24;;;;;;;3.73;3.37;;;10.40;99.90;;;;;;497218;238;28119;-71
2021/06/02 04:46:25;;;;;;;4.10;3.77;;;10.40;99.90;;;;;;497243;238;27939;-72
2021/06/02 04:48:27;;;;;;;4.00;3.70;;;10.60;99.90;;;;;;497310;238;28465;-72
2021/06/02 04:50:28;;;;;;;4.43;3.73;;;10.70;99.90;;;;;;497259;238;28834;-72
2021/06/02 04:52:29;;;;;;;3.90;3.60;;;10.70;99.90;;;;;;497151;238;29325;-71
2021/06/02 04:54:30;;;;;;;4.33;3.93;;;10.80;99.90;;;;;;497245;238;28265;-71
2021/06/02 04:56:32;;;;;;;4.17;3.87;;;10.90;99.90;;;;;;497218;239;28429;-72
2021/06/02 04:58:33;;;;;;;3.80;3.50;;;11.00;99.90;;;;;;497300;238;28136;-72
2021/06/02 05:00:34;;;;;;;6.63;4.40;;;11.00;99.90;;;;;;497287;238;28056;-71
2021/06/02 05:02:36;;;;;;;4.00;3.60;;;11.10;99.90;;;;;;497246;238;28172;-72
2021/06/02 05:04:37;;;;;;;4.17;3.87;;;11.20;99.90;;;;;;497180;239;28165;-72
2021/06/02 05:06:38;;;;;;;3.93;3.63;;;11.20;99.90;;;;;;497301;239;28274;-72
2021/06/02 05:08:39;;;;;;;4.77;3.40;;;11.30;99.90;;;;;;497317;238;28284;-72
2021/06/02 05:10:40;;;;;;;3.63;3.33;;;11.30;99.90;;;;;;497257;238;28393;-72
2021/06/02 05:12:42;;;;;;;3.90;3.53;;;11.40;99.90;;;;;;497273;238;28696;-72
2021/06/02 05:14:43;;;;;;;8.90;3.70;;;11.50;99.90;;;;;;497248;238;28732;-71
2021/06/02 05:16:44;;;;;;;3.97;3.50;;;11.50;99.90;;;;;;497278;238;28790;-72
2021/06/02 05:18:46;;;;;;;4.50;3.77;;;11.60;99.90;;;;;;497256;238;27993;-72
2021/06/02 05:22:48;;;;;;;4.27;3.87;;;11.60;99.90;;;;;;497240;238;28264;-72
2021/06/02 05:24:49;;;;;;;4.10;3.53;;;11.60;99.90;;;;;;497327;238;28384;-72
2021/06/02 05:26:50;;;;;;;4.57;4.17;;;11.50;99.90;;;;;;497256;238;28399;-73
2021/06/02 05:28:52;;;;;;;4.70;3.77;;;11.60;99.90;;;;;;497229;238;28281;-72
2021/06/02 05:30:53;;;;;;;5.17;3.97;;;11.70;99.90;;;;;;497221;237;28867;-72
2021/06/02 05:32:54;;;;;;;5.60;3.57;;;11.70;99.90;;;;;;497296;238;28248;-71
2021/06/02 05:34:55;;;;;;;4.20;3.80;;;11.70;99.90;;;;;;497228;238;29003;-72
2021/06/02 05:36:57;;;;;;;3.80;3.50;;;11.80;99.90;;;;;;497255;238;29098;-72
2021/06/02 05:38:58;;;;;;;3.80;3.40;;;11.90;99.90;;;;;;497270;238;28435;-72
2021/06/02 05:40:59;;;;;;;3.83;3.53;;;11.90;99.90;;;;;;497260;238;28066;-72
2021/06/02 05:43:02;;;;;;;3.20;2.90;;;;;;;;;;497314;238;28823;-72
2021/06/02 05:45:03;;;;;;;3.60;3.30;;;12.10;99.90;;;;;;497299;239;26658;-72
2021/06/02 05:47:04;;;;;;;3.67;3.37;;;12.20;99.90;;;;;;497338;238;28298;-71
2021/06/02 05:49:05;;;;;;;3.87;3.50;;;12.30;99.90;;;;;;497334;238;28733;-72
2021/06/02 05:51:08;;;;;;;3.57;3.27;;;;;;;;;;497328;238;28622;-71
2021/06/02 05:53:09;;;;;;;3.90;3.50;;;12.40;99.90;;;;;;497307;239;27369;-73
2021/06/02 05:55:10;;;;;;;3.07;2.83;;;12.60;99.90;;;;;;497364;238;28937;-72
2021/06/02 05:57:12;;;;;;;3.40;3.10;;;12.80;99.90;;;;;;497263;238;28319;-73
2021/06/02 05:59:13;;;;;;;2.97;2.77;;;12.80;99.90;;;;;;497296;238;28895;-72
2021/06/02 06:01:14;;;;;;;3.20;3.00;;;12.90;99.90;;;;;;497307;238;28661;-72
2021/06/02 06:03:15;;;;;;;3.27;3.00;;;13.00;99.90;;;;;;497180;238;28711;-71
2021/06/02 06:05:17;;;;;;;3.90;3.20;;;13.00;99.90;;;;;;497297;238;28669;-72
2021/06/02 06:07:18;;;;;;;4.47;4.10;;;13.20;99.90;;;;;;497289;238;28308;-73
2021/06/02 06:09:19;;;;;;;4.57;4.17;;;13.40;99.90;;;;;;497275;238;28224;-72
2021/06/02 06:11:20;;;;;;;3.90;3.50;;;13.70;99.90;;;;;;497275;238;28226;-71
2021/06/02 06:13:22;;;;;;;3.73;3.43;;;14.10;99.90;;;;;;497246;238;28496;-72
2021/06/02 06:15:23;;;;;;;3.57;3.27;;;14.30;99.90;;;;;;497242;238;28362;-72
2021/06/02 06:17:25;;;;;;;5.00;3.00;;;14.40;99.90;;;;;;497264;238;28498;-72
2021/06/02 06:19:25;;;;;;;3.27;3.00;;;14.30;99.90;;;;;;497252;238;28471;-72
2021/06/02 06:21:27;;;;;;;3.23;3.03;;;14.30;99.90;;;;;;497330;238;28492;-72
2021/06/02 06:23:28;;;;;;;3.67;3.37;;;14.30;99.90;;;;;;497079;238;30008;-72
2021/06/02 06:25:29;;;;;;;3.43;3.13;;;14.30;99.90;;;;;;497303;238;29026;-72
2021/06/02 06:27:30;;;;;;;3.27;3.07;;;14.30;99.90;;;;;;497223;238;29290;-73
2021/06/02 06:29:32;;;;;;;3.10;2.90;;;14.20;99.90;;;;;;497322;238;29217;-72
2021/06/02 06:31:33;;;;;;;3.23;2.93;;;14.30;99.90;;;;;;497259;239;28883;-72
2021/06/02 06:33:34;;;;;;;3.00;2.77;;;14.30;99.90;;;;;;497315;238;28766;-72
2021/06/02 06:35:37;;;;;;;3.07;2.87;;;14.40;99.90;;;;;;497217;238;28798;-73
2021/06/02 06:37:37;;;;;;;3.23;2.83;;;14.50;99.90;;;;;;497229;239;28909;-73
2021/06/02 06:39:38;;;;;;;3.60;3.17;;;14.60;99.90;;;;;;497345;238;28888;-73
2021/06/02 06:41:39;;;;;;;3.33;3.03;;;14.80;99.90;;;;;;497301;238;28821;-72
2021/06/02 06:43:40;;;;;;;3.90;3.10;;;14.90;99.90;;;;;;497378;238;28943;-72
2021/06/02 06:45:43;;;;;;;3.83;2.47;;;15.10;99.90;;;;;;497333;238;28936;-72
2021/06/02 06:47:43;;;;;;;3.00;2.70;;;15.50;99.90;;;;;;497179;239;29325;-72
2021/06/02 06:49:44;;;;;;;6.13;2.60;;;15.90;99.90;;;;;;497248;238;29389;-72
2021/06/02 06:51:52;;;;;;;3.77;2.63;;;16.20;99.90;;;;;;497266;238;29279;-73
2021/06/02 06:53:47;;;;;;;8.03;2.80;;;16.80;99.90;;;;;;496845;239;29231;-73
2021/06/02 06:55:48;;;;;;;7.27;2.80;;;16.90;99.90;;;;;;497294;238;28896;-73
2021/06/02 06:57:49;;;;;;;3.13;2.50;;;17.10;99.90;;;;;;497342;238;28821;-74
2021/06/02 06:59:50;;;;;;;2.60;2.20;;;17.20;99.90;;;;;;497314;238;28909;-73
2021/06/02 07:01:52;;;;;;;8.63;2.63;;;17.30;99.90;;;;;;497298;238;28830;-73
2021/06/02 07:03:55;;;;;;;2.70;2.30;;;17.40;99.90;;;;;;497306;238;28895;-73
2021/06/02 07:05:54;;;;;;;4.33;2.60;;;17.40;99.90;;;;;;497223;238;28816;-72
2021/06/02 07:07:55;;;;;;;2.97;2.30;;;17.20;99.90;;;;;;497316;238;29163;-74
2021/06/02 07:09:57;;;;;;;5.80;2.50;;;17.10;99.90;;;;;;497343;238;28699;-73
2021/06/02 07:11:58;;;;;;;3.00;2.40;;;17.60;99.90;;;;;;497255;238;29412;-75
2021/06/02 07:13:59;;;;;;;2.50;2.30;;;17.60;99.90;;;;;;497253;238;29222;-74
2021/06/02 07:16:00;;;;;;;2.37;2.13;;;17.60;99.90;;;;;;497274;238;29379;-73
2021/06/02 07:18:02;;;;;;;2.27;2.07;;;17.60;99.90;;;;;;497286;238;29454;-72
2021/06/02 07:20:03;;;;;;;3.50;2.37;;;17.50;99.90;;;;;;497292;238;28844;-72
2021/06/02 07:22:04;;;;;;;2.63;2.43;;;17.60;99.90;;;;;;497304;238;28822;-72
2021/06/02 07:24:05;;;;;;;2.30;2.20;;;17.70;99.90;;;;;;497311;238;28861;-72
2021/06/02 07:26:07;;;;;;;3.07;2.37;;;17.80;99.90;;;;;;497319;238;28819;-72
2021/06/02 07:28:08;;;;;;;3.57;2.20;;;17.90;99.90;;;;;;497247;238;28945;-74
2021/06/02 07:30:09;;;;;;;3.10;2.10;;;18.00;99.90;;;;;;497250;239;28775;-74
2021/06/02 07:32:10;;;;;;;2.50;2.30;;;18.20;99.90;;;;;;497257;238;28917;-74
2021/06/02 07:34:12;;;;;;;2.90;2.70;;;18.20;99.90;;;;;;497274;238;28777;-74
2021/06/02 07:36:13;;;;;;;3.50;2.37;;;18.30;99.90;;;;;;497252;238;29305;-74
2021/06/02 07:38:14;;;;;;;2.53;1.97;;;18.60;99.90;;;;;;497274;238;30092;-72
2021/06/02 07:40:15;;;;;;;4.67;2.33;;;18.40;99.90;;;;;;497272;238;29211;-72
2021/06/02 07:42:17;;;;;;;7.53;2.77;;;18.40;99.90;;;;;;497289;238;29379;-73
2021/06/02 07:44:18;;;;;;;2.10;2.00;;;18.80;99.90;;;;;;497258;238;28790;-74
2021/06/02 07:46:19;;;;;;;4.50;2.53;;;18.90;99.90;;;;;;497219;238;28934;-74
2021/06/02 07:48:20;;;;;;;2.40;2.20;;;19.10;99.90;;;;;;497259;238;28925;-74
2021/06/02 07:50:22;;;;;;;2.30;2.20;;;19.10;99.90;;;;;;497247;238;28796;-73
2021/06/02 07:52:23;;;;;;;3.10;2.37;;;19.20;99.90;;;;;;497248;238;28805;-75
2021/06/02 07:54:24;;;;;;;2.60;2.40;;;19.30;99.30;;;;;;497221;238;28919;-74
2021/06/02 07:56:25;;;;;;;3.23;2.40;;;19.40;98.90;;;;;;497285;238;28916;-72
2021/06/02 07:58:27;;;;;;;4.00;2.10;;;19.50;98.60;;;;;;497249;238;28887;-74
2021/06/02 08:00:28;;;;;;;2.37;2.17;;;19.40;97.10;;;;;;497229;238;29335;-74
2021/06/02 08:02:29;;;;;;;3.20;2.43;;;19.50;97.10;;;;;;497265;238;29228;-74
2021/06/02 08:04:31;;;;;;;2.70;2.50;;;19.60;96.60;;;;;;497249;238;29316;-74
2021/06/02 08:06:32;;;;;;;2.93;2.13;;;19.60;96.20;;;;;;497244;239;29455;-74
2021/06/02 08:08:33;;;;;;;2.63;2.10;;;19.60;95.30;;;;;;497309;238;28901;-74
2021/06/02 08:10:34;;;;;;;3.90;2.00;;;19.70;95.20;;;;;;497265;238;28817;-72
2021/06/02 08:12:35;;;;;;;2.17;2.07;;;19.80;93.40;;;;;;497245;239;28903;-74
2021/06/02 08:14:37;;;;;;;2.60;2.27;;;19.70;94.40;;;;;;497255;237;28774;-74
2021/06/02 08:16:38;;;;;;;2.97;2.67;;;19.50;94.30;;;;;;497240;238;28817;-75
2021/06/02 08:18:39;;;;;;;2.83;2.53;;;19.70;93.80;;;;;;497249;238;28852;-74
2021/06/02 08:20:40;;;;;;;2.30;2.10;;;19.60;93.80;;;;;;497238;238;28852;-72
2021/06/02 08:22:42;;;;;;;2.27;1.90;;;19.60;94.40;;;;;;497230;238;28837;-75
2021/06/02 08:24:43;;;;;;;2.50;2.30;;;19.40;95.50;;;;;;497225;238;29248;-74
2021/06/02 08:26:46;;;;;;;2.37;2.17;;;19.50;97.60;;;;;;497244;238;29296;-74
2021/06/02 08:28:45;;;;;;;2.40;2.20;;;19.40;96.30;;;;;;497143;239;29299;-74
2021/06/02 08:30:47;;;;;;;4.13;2.50;;;19.50;95.00;;;;;;497271;238;29386;-74
2021/06/02 08:32:48;;;;;;;2.57;2.37;;;19.40;95.20;;;;;;497240;238;28846;-75
2021/06/02 08:34:49;;;;;;;2.00;1.90;;;19.40;93.80;;;;;;497249;238;28783;-74
2021/06/02 08:36:50;;;;;;;2.50;2.30;;;19.50;94.40;;;;;;497252;238;28820;-75
2021/06/02 08:38:52;;;;;;;1.87;1.77;;;19.50;92.70;;;;;;497254;238;28776;-74
2021/06/02 08:40:53;;;;;;;4.60;2.27;;;19.40;94.30;;;;;;497282;238;28847;-72
2021/06/02 08:42:54;;;;;;;3.60;2.50;;;19.70;95.50;;;;;;497284;238;28814;-71
2021/06/02 08:44:55;;;;;;;2.40;2.20;;;19.90;94.70;;;;;;497264;238;28888;-74
2021/06/02 08:46:57;;;;;;;2.40;2.20;;;20.00;90.30;;;;;;497286;238;28805;-74
2021/06/02 08:48:58;;;;;;;2.40;2.30;;;20.20;88.80;;;;;;497287;238;29209;-74
2021/06/02 08:50:59;;;;;;;2.50;2.30;;;20.10;90.10;;;;;;497271;238;29351;-74
2021/06/02 08:53:01;;;;;;;3.73;2.20;;;20.10;90.50;;;;;;497278;238;29254;-74
2021/06/02 08:55:02;;;;;;;2.50;2.30;;;19.80;89.00;;;;;;497254;238;29255;-74
2021/06/02 08:57:03;;;;;;;2.40;2.20;;;19.90;89.40;;;;;;497257;238;28809;-74
2021/06/02 08:59:04;;;;;;;2.87;2.27;;;20.40;90.90;;;;;;497289;238;28879;-73
2021/06/02 09:01:05;;;;;;;2.53;2.13;;;20.20;92.90;;;;;;497257;238;28818;-74
2021/06/02 09:03:07;;;;;;;2.87;1.97;;;20.40;92.80;;;;;;497247;238;28764;-74
2021/06/02 09:05:08;;;;;;;2.50;2.30;;;20.30;91.90;;;;;;497225;238;28783;-73
2021/06/02 09:07:09;;;;;;;3.93;2.10;;;20.20;91.00;;;;;;497241;238;28821;-74
2021/06/02 09:09:10;;;;;;;2.57;2.30;;;20.20;94.70;;;;;;497238;238;28912;-74
2021/06/02 09:11:12;;;;;;;2.03;1.83;;;20.20;91.50;;;;;;497244;239;28918;-74
2021/06/02 09:13:13;;;;;;;2.10;1.90;;;20.20;93.60;;;;;;497245;238;29235;-74
2021/06/02 09:15:14;;;;;;;3.43;2.50;;;20.10;92.60;;;;;;497229;238;29224;-74
2021/06/02 09:17:16;;;;;;;2.70;2.00;;;20.10;93.40;;;;;;497252;238;29356;-75
2021/06/02 09:19:17;;;;;;;2.13;2.00;;;20.20;93.80;;;;;;497248;238;29231;-74
2021/06/02 09:21:18;;;;;;;2.50;2.30;;;20.40;90.90;;;;;;497236;238;28824;-74
2021/06/02 09:23:19;;;;;;;3.13;2.60;;;20.90;90.80;;;;;;497243;239;28766;-74
2021/06/02 09:25:21;;;;;;;6.30;2.10;;;20.80;91.20;;;;;;497228;239;28860;-74
2021/06/02 09:27:22;;;;;;;3.33;2.30;;;20.80;93.10;;;;;;497242;238;28821;-75
2021/06/02 09:29:23;;;;;;;2.53;2.33;;;20.90;90.10;;;;;;497244;238;28860;-74
2021/06/02 09:31:26;;;;;;;3.97;2.40;;;20.90;86.60;;;;;;497257;238;28824;-74
2021/06/02 09:33:28;;;;;;;2.60;2.40;;;21.10;82.80;;;;;;497212;238;28861;-74
2021/06/02 09:35:27;;;;;;;4.60;1.90;;;21.00;82.20;;;;;;497112;239;28817;-74
2021/06/02 09:37:28;;;;;;;2.33;2.00;;;21.00;86.10;;;;;;497178;239;29246;-74
2021/06/02 09:39:29;;;;;;;2.20;2.10;;;21.00;88.40;;;;;;497056;238;30075;-72
2021/06/02 09:41:31;;;;;;;2.37;2.17;;;21.10;85.50;;;;;;494105;238;29460;-72
2021/06/02 09:43:32;;;;;;;2.33;2.10;;;21.70;83.00;;;;;;493885;241;29330;-71
2021/06/02 09:45:33;;;;;;;3.43;2.37;;;21.80;86.60;;;;;;493919;241;28850;-74
2021/06/02 09:47:34;;;;;;;2.13;1.93;;;21.60;85.70;;;;;;493907;241;28943;-72
2021/06/02 09:49:36;;;;;;;2.10;2.00;;;21.60;86.00;;;;;;493941;237;28941;-72
2021/06/02 09:51:37;;;;;;;5.07;2.43;;;21.50;83.30;;;;;;493915;241;28814;-74
2021/06/02 09:53:38;;;;;;;3.23;2.10;;;21.40;82.80;;;;;;493944;241;28794;-73
2021/06/02 09:55:39;;;;;;;2.33;2.13;;;21.30;82.80;;;;;;493990;241;28842;-72
2021/06/02 09:57:41;;;;;;;2.27;2.17;;;21.40;87.10;;;;;;493994;241;28958;-72
2021/06/02 09:59:42;;;;;;;2.30;2.13;;;21.50;88.00;;;;;;493570;240;28810;-72
2021/06/02 10:01:43;;;;;;;4.60;2.50;;;21.20;86.10;;;;;;493938;241;29296;-74
2021/06/02 10:03:44;;;;;;;2.30;2.10;;;21.20;83.70;;;;;;493727;241;29645;-72
2021/06/02 10:05:46;;;;;;;2.43;2.23;;;21.20;84.10;;;;;;493873;241;29311;-74
2021/06/02 10:07:47;;;;;;;3.90;2.20;;;21.10;84.30;;;;;;493863;241;30143;-72
2021/06/02 10:09:48;;;;;;;2.20;2.00;;;21.40;88.90;;;;;;493783;241;28845;-72
2021/06/02 10:11:49;;;;;;;2.37;2.17;;;21.60;86.10;;;;;;492932;236;28869;-72
2021/06/02 10:13:51;;;;;;;2.00;1.90;;;21.60;87.30;;;;;;494348;236;28875;-74
2021/06/02 10:15:53;;;;;;;2.23;2.00;;;21.60;88.40;;;;;;504158;236;28751;-74
2021/06/02 10:17:53;;;;;;;2.13;1.97;;;21.50;84.20;;;;;;504113;236;28683;-72
2021/06/02 10:19:54;;;;;;;2.00;1.90;;;21.40;81.00;;;;;;504167;236;28664;-74
2021/06/02 10:21:56;;;;;;;2.10;2.00;;;21.20;86.50;;;;;;504174;236;28669;-74
2021/06/02 10:23:57;;;;;;;2.00;1.90;;;21.40;86.60;;;;;;504166;236;28681;-72
2021/06/02 10:25:58;;;;;;;3.63;2.20;;;21.50;87.30;;;;;;504203;236;29230;-74
2021/06/02 10:27:59;;;;;;;2.83;1.97;;;21.70;85.20;;;;;;504210;236;29182;-74
2021/06/02 10:30:01;;;;;;;2.13;1.97;;;21.50;82.80;;;;;;504189;236;29186;-73
2021/06/02 10:32:02;;;;;;;2.13;2.03;;;21.50;83.40;;;;;;504214;236;29175;-74
2021/06/02 10:34:03;;;;;;;2.60;2.40;;;21.70;82.70;;;;;;504190;236;28649;-74
2021/06/02 10:36:04;;;;;;;3.13;2.40;;;22.00;80.10;;;;;;504214;236;28677;-73